TimeCDT,TemperatureF,Dew PointF,Humidity,Sea Level PressureIn,VisibilityMPH,Wind Direction,Wind SpeedMPH,Gust SpeedMPH,PrecipitationIn,Events,Conditions,WindDirDegrees,DateUTC
12:54 AM,34.0,21.0,59,30.08,10.0,NE,5.8,-,N/A,,Overcast,50,2013-03-23 05:54:00
1:54 AM,34.0,21.0,59,30.08,10.0,NE,6.9,-,N/A,,Overcast,50,2013-03-23 06:54:00
2:54 AM,33.1,21.0,61,30.07,10.0,ENE,9.2,-,N/A,,Overcast,60,2013-03-23 07:54:00
3:54 AM,33.1,19.9,59,30.06,10.0,ENE,6.9,-,N/A,,Overcast,70,2013-03-23 08:54:00
4:54 AM,33.1,19.9,59,30.08,10.0,ENE,3.5,-,N/A,,Overcast,70,2013-03-23 09:54:00
5:54 AM,32.0,19.4,60,30.05,10.0,ENE,5.8,-,N/A,,Overcast,60,2013-03-23 10:54:00
6:54 AM,32.0,19.9,61,30.07,10.0,NE,6.9,-,N/A,,Overcast,40,2013-03-23 11:54:00
7:54 AM,32.0,21.2,64,30.08,10.0,NE,3.5,-,N/A,,Partly Cloudy,50,2013-03-23 12:54:00
8:54 AM,36.0,21.0,55,30.10,10.0,ENE,8.1,-,N/A,,Clear,60,2013-03-23 13:54:00
9:54 AM,37.9,19.0,47,30.11,10.0,ENE,10.4,-,N/A,,Overcast,70,2013-03-23 14:54:00
10:54 AM,39.9,21.0,47,30.11,10.0,ENE,9.2,-,N/A,,Overcast,70,2013-03-23 15:54:00
11:54 AM,42.1,19.9,41,30.09,10.0,East,10.4,-,N/A,,Clear,80,2013-03-23 16:54:00
12:54 PM,46.0,21.0,37,30.08,10.0,ENE,8.1,-,N/A,,Clear,60,2013-03-23 17:54:00
1:54 PM,46.0,19.9,35,30.08,10.0,Variable,3.5,-,N/A,,Mostly Cloudy,0,2013-03-23 18:54:00
2:54 PM,48.0,21.0,34,30.05,10.0,Variable,3.5,-,N/A,,Mostly Cloudy,0,2013-03-23 19:54:00
3:54 PM,48.0,21.9,36,30.00,10.0,NNE,9.2,-,N/A,,Clear,30,2013-03-23 20:54:00
4:54 PM,46.9,23.0,39,29.99,10.0,NE,9.2,19.6,N/A,,Clear,40,2013-03-23 21:54:00
5:54 PM,45.0,21.9,40,29.98,10.0,ENE,10.4,-,N/A,,Clear,70,2013-03-23 22:54:00
6:54 PM,42.1,21.9,45,29.98,10.0,ENE,12.7,-,N/A,,Clear,60,2013-03-23 23:54:00
7:54 PM,41.0,21.9,47,29.99,10.0,NE,9.2,-,N/A,,Clear,50,2013-03-24 00:54:00
8:54 PM,41.0,21.9,47,29.99,10.0,NE,9.2,-,N/A,,Clear,40,2013-03-24 01:54:00
9:54 PM,37.9,24.1,57,29.99,10.0,ENE,13.8,-,N/A,,Overcast,60,2013-03-24 02:54:00
10:54 PM,35.1,23.0,61,30.01,10.0,ENE,15.0,-,N/A,,Overcast,70,2013-03-24 03:54:00
11:54 PM,33.1,23.0,66,30.00,10.0,NE,16.1,20.7,N/A,,Overcast,50,2013-03-24 04:54:00